createdAt,value
2022-08-25T00:02:37.946Z,19.66
2022-08-25T00:07:43.628Z,19.43
2022-08-25T00:12:47.651Z,19.12
2022-08-25T00:17:51.782Z,18.94
2022-08-25T00:22:57.439Z,18.56
2022-08-25T00:28:05.255Z,18.32
2022-08-25T00:33:12.328Z,18.36
2022-08-25T00:38:17.792Z,18.32
2022-08-25T00:43:21.724Z,18.28
2022-08-25T00:48:25.765Z,18.23
2022-08-25T00:53:32.280Z,18.43
2022-08-25T00:58:37.713Z,18.90
2022-08-25T01:03:41.776Z,18.59
2022-08-25T01:08:47.570Z,18.32
2022-08-25T01:13:55.260Z,18.48
2022-08-25T01:19:00.888Z,18.34
2022-08-25T01:24:07.186Z,18.63
2022-08-25T01:29:25.656Z,18.44
2022-08-25T01:34:38.824Z,18.57
2022-08-25T01:39:45.033Z,18.42
2022-08-25T01:44:52.307Z,18.40
2022-08-25T01:49:59.247Z,18.31
2022-08-25T01:55:04.928Z,18.38
2022-08-25T02:00:13.512Z,18.42
2022-08-25T02:05:20.379Z,18.26
2022-08-25T02:10:28.715Z,18.27
2022-08-25T02:15:32.895Z,18.13
2022-08-25T02:20:37.380Z,18.27
2022-08-25T02:25:43.622Z,18.20
2022-08-25T02:30:48.265Z,18.20
2022-08-25T02:35:52.414Z,18.35
2022-08-25T02:40:58.684Z,18.24
2022-08-25T02:46:02.647Z,18.28
2022-08-25T02:51:12.466Z,18.34
2022-08-25T02:56:19.936Z,18.27
2022-08-25T03:01:28.934Z,18.31
2022-08-25T03:06:33.173Z,18.39
2022-08-25T03:11:39.270Z,18.50
2022-08-25T03:16:46.287Z,18.51
2022-08-25T03:21:52.507Z,18.58
2022-08-25T03:26:58.170Z,18.63
2022-08-25T03:32:02.262Z,18.57
2022-08-25T03:37:08.562Z,18.52
2022-08-25T03:42:13.969Z,18.58
2022-08-25T03:47:17.966Z,18.56
2022-08-25T03:52:22.110Z,18.54
2022-08-25T03:57:27.694Z,18.56
2022-08-25T04:02:33.922Z,18.56
2022-08-25T04:07:38.065Z,18.61
2022-08-25T04:12:43.592Z,18.66
2022-08-25T04:17:47.693Z,18.67
2022-08-25T04:22:56.173Z,18.73
2022-08-25T04:28:02.292Z,18.81
2022-08-25T04:33:06.459Z,18.83
2022-08-25T04:57:11.328Z,18.95
2022-08-25T05:02:15.568Z,18.93
2022-08-25T05:07:20.023Z,18.82
2022-08-25T05:12:25.576Z,18.86
2022-08-25T05:17:33.008Z,18.84
2022-08-25T05:37:25.452Z,19.24
2022-08-25T05:42:29.603Z,19.34
2022-08-25T05:47:34.298Z,19.39
2022-08-25T05:52:40.049Z,19.36
2022-08-25T05:57:44.134Z,19.45
2022-08-25T06:02:49.753Z,19.65
2022-08-25T06:31:00.513Z,21.05
2022-08-25T06:36:06.763Z,21.28
2022-08-25T06:41:12.563Z,21.61
2022-08-25T06:46:20.288Z,21.96
2022-08-25T06:51:26.117Z,21.73
2022-08-25T06:56:30.088Z,22.03
2022-08-25T07:01:35.958Z,22.62
2022-08-25T07:06:40.399Z,22.91
2022-08-25T07:12:09.742Z,22.61
2022-08-25T07:17:15.125Z,22.40
2022-08-25T07:22:19.032Z,21.95
2022-08-25T07:27:22.989Z,22.71
2022-08-25T07:32:28.359Z,23.58
2022-08-25T07:37:47.999Z,23.38
2022-08-25T07:42:54.436Z,23.19
2022-08-25T07:48:01.072Z,23.65
2022-08-25T07:53:06.100Z,24.10
2022-08-25T07:58:12.389Z,24.20
2022-08-25T08:03:29.371Z,24.53
2022-08-25T08:08:45.577Z,23.66
2022-08-25T08:13:50.891Z,23.45
2022-08-25T08:18:57.906Z,23.29
2022-08-25T08:24:05.047Z,23.23
2022-08-25T08:29:16.446Z,23.47
2022-08-25T08:34:24.942Z,23.18
2022-08-25T08:39:30.654Z,23.95
2022-08-25T08:44:45.346Z,24.79
2022-08-25T08:49:58.221Z,24.67
2022-08-25T08:55:07.000Z,24.64
2022-08-25T09:00:12.101Z,25.16
2022-08-25T09:05:21.041Z,25.74
2022-08-25T09:10:27.591Z,26.77
2022-08-25T09:15:59.707Z,26.42
2022-08-25T09:21:15.439Z,26.55
2022-08-25T09:26:29.571Z,26.78
2022-08-25T09:31:38.871Z,26.12
2022-08-25T09:36:45.481Z,26.50
2022-08-25T09:41:51.274Z,27.30
2022-08-25T09:47:04.181Z,27.75
2022-08-25T09:52:38.145Z,27.90
2022-08-25T09:57:48.440Z,28.13
2022-08-25T10:03:08.486Z,26.78
2022-08-25T10:08:25.935Z,27.41
2022-08-25T10:13:39.989Z,26.20
2022-08-25T10:18:43.923Z,25.79
2022-08-25T10:23:55.943Z,28.15
2022-08-25T10:29:22.228Z,28.42
2022-08-25T10:34:38.828Z,29.26
2022-08-25T10:39:59.245Z,28.78
2022-08-25T10:45:34.389Z,29.39
2022-08-25T10:50:45.590Z,29.21
2022-08-25T11:13:03.911Z,29.29
2022-08-25T11:18:14.667Z,29.74
2022-08-25T11:23:25.511Z,29.46
2022-08-25T11:28:36.612Z,28.07
2022-08-25T11:33:40.859Z,26.83
2022-08-25T11:38:57.726Z,29.04
2022-08-25T11:44:24.144Z,28.77
2022-08-25T11:49:47.848Z,29.28
2022-08-25T11:54:52.423Z,28.96
2022-08-25T12:00:14.795Z,28.77
2022-08-25T12:05:52.298Z,28.83
2022-08-25T12:10:59.496Z,29.32
2022-08-25T12:16:05.467Z,28.65
2022-08-25T12:21:32.355Z,26.81
2022-08-25T12:26:46.004Z,25.78
2022-08-25T12:32:20.364Z,26.81
2022-08-25T12:37:26.276Z,27.38
2022-08-25T12:42:35.381Z,28.55
2022-08-25T12:47:44.789Z,28.70
2022-08-25T12:52:49.599Z,28.06
2022-08-25T12:57:58.841Z,27.33
2022-08-25T13:03:28.422Z,26.09
2022-08-25T13:08:57.780Z,25.30
2022-08-25T13:14:06.970Z,24.41
2022-08-25T13:19:20.348Z,24.82
2022-08-25T13:24:28.615Z,24.89
2022-08-25T13:29:37.723Z,25.70
2022-08-25T13:34:46.461Z,24.80
2022-08-25T13:39:56.248Z,24.28
2022-08-25T13:45:00.848Z,25.28
2022-08-25T13:50:30.123Z,26.15
2022-08-25T13:55:50.758Z,26.21
2022-08-25T14:01:22.245Z,25.50
2022-08-25T14:06:35.945Z,25.21
2022-08-25T14:11:45.567Z,24.98
2022-08-25T14:16:57.275Z,24.49
2022-08-25T14:22:03.324Z,24.58
2022-08-25T14:27:07.557Z,24.78
2022-08-25T14:32:17.773Z,24.92
2022-08-25T14:37:25.305Z,24.77
2022-08-25T14:42:29.775Z,24.69
2022-08-25T14:47:34.271Z,24.26
2022-08-25T14:52:39.575Z,24.27
2022-08-25T14:57:43.663Z,24.11
2022-08-25T15:02:51.594Z,24.03
2022-08-25T15:08:18.559Z,23.94
2022-08-25T15:13:23.318Z,23.80
2022-08-25T15:18:27.335Z,23.59
2022-08-25T15:23:33.569Z,23.39
2022-08-25T15:28:40.680Z,23.27
2022-08-25T15:33:46.338Z,22.99
2022-08-25T15:38:51.792Z,22.80
2022-08-25T15:43:56.516Z,22.67
2022-08-25T15:49:01.389Z,22.66
2022-08-25T15:54:06.949Z,22.50
2022-08-25T15:59:13.517Z,22.39
2022-08-25T16:04:18.783Z,22.40
2022-08-25T16:09:24.282Z,22.27
2022-08-25T16:14:28.755Z,22.15
2022-08-25T16:19:33.756Z,21.99
2022-08-25T16:24:42.129Z,21.84
2022-08-25T16:29:46.127Z,21.77
2022-08-25T16:34:50.039Z,21.64
2022-08-25T16:39:55.737Z,21.53
2022-08-25T16:44:59.998Z,21.61
2022-08-25T16:50:04.030Z,21.64
2022-08-25T16:55:16.471Z,21.58
2022-08-25T17:00:23.576Z,21.50
2022-08-25T17:05:28.012Z,21.50
2022-08-25T17:10:36.551Z,21.48
2022-08-25T17:15:42.637Z,21.70
2022-08-25T17:20:46.917Z,21.90
2022-08-25T17:25:53.269Z,21.85
2022-08-25T17:30:58.671Z,21.79
2022-08-25T17:36:03.420Z,21.55
2022-08-25T17:41:10.957Z,22.12
2022-08-25T17:46:15.403Z,21.84
2022-08-25T17:51:19.610Z,21.55
2022-08-25T17:56:27.228Z,21.59
2022-08-25T18:01:33.982Z,20.95
2022-08-25T18:06:38.056Z,20.92
2022-08-25T18:11:44.223Z,20.84
2022-08-25T18:16:48.550Z,21.52
2022-08-25T18:21:52.697Z,21.53
2022-08-25T18:26:59.046Z,21.46
2022-08-25T18:32:03.645Z,21.36
2022-08-25T18:37:22.508Z,20.71
2022-08-25T18:42:30.233Z,21.38
2022-08-25T18:47:34.772Z,21.11
2022-08-25T18:52:38.832Z,21.33
2022-08-25T18:57:44.747Z,21.01
2022-08-25T19:02:50.721Z,20.56
2022-08-25T19:07:54.809Z,20.74
2022-08-25T19:13:07.876Z,20.64
2022-08-25T19:18:14.843Z,20.87
2022-08-25T19:23:21.352Z,20.70
2022-08-25T19:28:27.141Z,20.46
2022-08-25T19:33:45.267Z,20.58
2022-08-25T19:38:50.152Z,20.41
2022-08-25T19:43:57.711Z,20.71
2022-08-25T19:49:07.201Z,20.47
2022-08-25T19:54:16.912Z,20.26
2022-08-25T19:59:23.009Z,20.16
2022-08-25T20:04:27.809Z,20.70
2022-08-25T20:09:39.075Z,21.27
2022-08-25T20:14:47.143Z,20.75
2022-08-25T20:19:51.206Z,20.49
2022-08-25T20:24:58.029Z,20.44
2022-08-25T20:30:06.603Z,20.37
2022-08-25T20:35:14.346Z,20.47
2022-08-25T20:40:25.521Z,20.25
2022-08-25T20:45:32.737Z,20.44
2022-08-25T20:50:39.493Z,19.96
2022-08-25T20:55:43.939Z,19.85
2022-08-25T21:00:50.344Z,19.68
2022-08-25T21:05:54.449Z,19.57
2022-08-25T21:10:58.436Z,19.41
2022-08-25T21:16:05.591Z,19.37
2022-08-25T21:21:14.167Z,19.33
2022-08-25T21:26:22.124Z,19.26
2022-08-25T21:31:28.761Z,19.25
2022-08-25T21:36:33.004Z,19.21
2022-08-25T21:41:39.326Z,19.21
2022-08-25T21:46:54.427Z,19.21
2022-08-25T21:52:00.879Z,19.18
2022-08-25T21:57:07.749Z,19.18
2022-08-25T22:02:19.286Z,19.17
2022-08-25T22:07:26.827Z,19.25
2022-08-25T22:12:31.040Z,19.31
2022-08-25T22:17:36.579Z,19.23
2022-08-25T22:22:40.587Z,19.20
2022-08-25T22:27:44.583Z,19.10
2022-08-25T22:32:50.273Z,19.15
2022-08-25T22:37:54.327Z,19.05
2022-08-25T22:42:58.266Z,18.98
2022-08-25T22:48:05.293Z,19.15
2022-08-25T22:53:09.333Z,19.13
2022-08-25T22:58:14.878Z,19.06
2022-08-25T23:03:20.449Z,19.17
2022-08-25T23:08:38.937Z,19.24
2022-08-25T23:13:44.628Z,19.16
2022-08-25T23:18:49.942Z,19.10
2022-08-25T23:23:54.697Z,19.09
2022-08-25T23:28:58.747Z,19.02
2022-08-25T23:34:05.555Z,19.11
2022-08-25T23:39:09.793Z,19.00
2022-08-25T23:44:17.403Z,19.05
2022-08-25T23:49:24.858Z,18.93
2022-08-25T23:54:31.488Z,18.88
2022-08-25T23:59:35.969Z,18.94
